Time;durP1;ratioP1;P1;durP2;ratioP2;P2;SDS_P1;SDS_P2;PMS_P1;PMS_P2;Temp;Humidity;BMP_temperature;BMP_pressure;BME280_temperature;BME280_humidity;BME280_pressure;Samples;Min_cycle;Max_cycle;Signal;HPM_P1;HPM_P2
2022/10/11 00:00:33;;;;;;;76.57;39.57;;;9.80;99.90;;;;;;5050410;28;20236;-51
2022/10/11 00:03:01;;;;;;;230.27;167.37;;;9.70;99.90;;;;;;5050773;28;20264;-51
2022/10/11 00:05:29;;;;;;;201.20;146.87;;;9.70;99.90;;;;;;5051237;28;20235;-51
2022/10/11 00:07:57;;;;;;;111.53;82.10;;;9.60;99.90;;;;;;5050995;28;20210;-51
2022/10/11 00:10:26;;;;;;;69.70;50.40;;;9.50;99.90;;;;;;5049791;28;20202;-51
2022/10/11 00:12:54;;;;;;;284.57;199.07;;;9.40;99.90;;;;;;5049235;28;20694;-52
2022/10/11 00:15:22;;;;;;;198.07;129.70;;;9.30;99.90;;;;;;5047540;28;20679;-51
2022/10/11 00:17:52;;;;;;;184.53;106.40;;;9.30;99.90;;;;;;5049501;28;20304;-52
2022/10/11 00:20:20;;;;;;;175.67;116.07;;;9.20;99.90;;;;;;5049182;28;20323;-51
2022/10/11 00:22:48;;;;;;;312.80;204.37;;;9.10;99.90;;;;;;5048641;28;20231;-51
2022/10/11 00:25:17;;;;;;;269.57;133.63;;;9.10;99.90;;;;;;5048950;28;20628;-52
2022/10/11 00:27:45;;;;;;;250.97;160.70;;;9.10;99.90;;;;;;5049809;28;20243;-51
2022/10/11 00:30:14;;;;;;;390.40;271.83;;;9.00;99.90;;;;;;5049187;28;20742;-51
2022/10/11 00:32:42;;;;;;;32.27;21.40;;;8.90;99.90;;;;;;5048986;28;20243;-51
2022/10/11 00:35:11;;;;;;;121.20;92.60;;;8.90;99.90;;;;;;5048716;28;20337;-51
2022/10/11 00:37:39;;;;;;;401.73;278.93;;;8.80;99.90;;;;;;5049150;28;20247;-52
2022/10/11 00:40:14;;;;;;;157.03;112.10;;;8.70;99.90;;;;;;5048712;28;20208;-51
2022/10/11 00:42:42;;;;;;;133.87;85.23;;;8.70;99.90;;;;;;5049009;28;20299;-51
2022/10/11 00:45:46;;;;;;;196.47;135.87;;;8.60;99.90;;;;;;5049117;28;20230;-51
2022/10/11 00:48:21;;;;;;;127.13;77.13;;;8.60;99.90;;;;;;5044816;28;20204;-51
2022/10/11 00:50:50;;;;;;;40.20;36.07;;;8.50;99.90;;;;;;5049471;28;20645;-51
2022/10/11 00:53:18;;;;;;;68.80;49.97;;;8.40;99.90;;;;;;5036560;28;20289;-52
2022/10/11 00:55:53;;;;;;;182.57;126.10;;;8.40;99.90;;;;;;5046130;28;20734;-51
2022/10/11 00:58:23;;;;;;;28.80;25.70;;;8.40;99.90;;;;;;5047459;28;20211;-51
2022/10/11 01:00:52;;;;;;;229.23;127.53;;;8.40;99.90;;;;;;5049389;28;20229;-51
2022/10/11 01:03:24;;;;;;;41.87;23.03;;;8.30;99.90;;;;;;5048681;28;20288;-52
2022/10/11 01:05:54;;;;;;;169.33;112.87;;;8.30;99.90;;;;;;5049632;28;20243;-51
2022/10/11 01:08:23;;;;;;;146.73;96.63;;;8.20;99.90;;;;;;5052044;28;20656;-52
2022/10/11 01:10:52;;;;;;;112.13;78.03;;;8.10;99.90;;;;;;5053090;28;20232;-52
2022/10/11 01:13:28;;;;;;;96.73;72.87;;;8.10;99.90;;;;;;5044363;28;20671;-51
2022/10/11 01:16:04;;;;;;;124.07;91.77;;;8.00;99.90;;;;;;5052388;28;20232;-50
2022/10/11 01:18:40;;;;;;;65.13;54.07;;;8.00;99.90;;;;;;5052759;28;20671;-52
2022/10/11 01:21:17;;;;;;;207.67;178.57;;;7.90;99.90;;;;;;5052944;28;20315;-52
2022/10/11 01:24:42;;;;;;;104.13;74.47;;;7.80;99.90;;;;;;5052346;28;20311;-52
2022/10/11 01:27:34;;;;;;;31.57;25.37;;;7.80;99.90;;;;;;5042613;28;20214;-52
2022/10/11 01:30:20;;;;;;;50.70;40.57;;;7.70;99.90;;;;;;5052918;28;20302;-52
2022/10/11 01:32:57;;;;;;;23.80;21.27;;;7.70;99.90;;;;;;5047262;28;20772;-52
2022/10/11 01:35:29;;;;;;;240.50;190.20;;;7.70;99.90;;;;;;5046484;28;20316;-50
2022/10/11 01:38:02;;;;;;;119.80;90.27;;;7.60;99.90;;;;;;5046784;28;20301;-52
2022/10/11 01:40:35;;;;;;;102.47;83.40;;;7.60;99.90;;;;;;5048318;28;20653;-51
2022/10/11 01:43:04;;;;;;;258.70;205.23;;;7.60;99.90;;;;;;5040882;28;20301;-51
2022/10/11 01:45:35;;;;;;;52.87;40.03;;;7.50;99.90;;;;;;5053659;28;20324;-51
2022/10/11 01:48:08;;;;;;;49.50;29.17;;;7.40;99.90;;;;;;5051951;28;20209;-51
2022/10/11 01:50:47;;;;;;;165.00;106.60;;;7.40;99.90;;;;;;5052016;28;20264;-51
2022/10/11 01:53:48;;;;;;;40.73;33.00;;;7.30;99.90;;;;;;5038197;28;20200;-51
2022/10/11 01:56:30;;;;;;;47.07;42.43;;;7.30;99.90;;;;;;5039161;28;20732;-51
2022/10/11 01:59:14;;;;;;;25.87;22.90;;;7.30;99.90;;;;;;5052352;28;20214;-51
2022/10/11 02:01:54;;;;;;;172.97;134.57;;;7.20;99.90;;;;;;5052038;28;20228;-53
2022/10/11 02:04:30;;;;;;;115.83;104.53;;;7.20;99.90;;;;;;5051699;28;20232;-52
2022/10/11 02:07:03;;;;;;;464.80;221.13;;;7.10;99.90;;;;;;5048092;28;20205;-52
2022/10/11 02:09:36;;;;;;;472.00;246.70;;;7.00;99.90;;;;;;5048637;28;20674;-51
2022/10/11 02:12:09;;;;;;;725.33;358.00;;;6.90;99.90;;;;;;5051536;28;20209;-51
2022/10/11 02:14:42;;;;;;;475.90;218.63;;;6.90;99.90;;;;;;5051785;28;20228;-51
2022/10/11 02:17:15;;;;;;;240.50;179.23;;;6.90;99.90;;;;;;5051677;28;20226;-49
2022/10/11 02:19:46;;;;;;;34.07;23.60;;;6.90;99.90;;;;;;5046520;28;20205;-52
2022/10/11 02:22:19;;;;;;;283.13;143.70;;;6.80;99.90;;;;;;5051494;28;21042;-51
2022/10/11 02:24:52;;;;;;;290.33;184.63;;;6.80;99.90;;;;;;5051999;28;20235;-51
2022/10/11 02:27:24;;;;;;;53.37;44.53;;;6.70;99.90;;;;;;5051488;28;20209;-51
2022/10/11 02:29:55;;;;;;;311.40;187.97;;;6.60;99.90;;;;;;5052157;28;20299;-51
2022/10/11 02:32:26;;;;;;;30.33;26.50;;;6.60;99.90;;;;;;5051207;28;20212;-51
2022/10/11 02:34:56;;;;;;;81.93;73.07;;;6.60;99.90;;;;;;5051267;28;20776;-51
2022/10/11 02:37:30;;;;;;;38.37;32.13;;;6.50;99.90;;;;;;5051766;28;20224;-52
2022/10/11 02:40:04;;;;;;;177.00;129.63;;;6.50;99.90;;;;;;5050054;28;20215;-52
2022/10/11 02:42:36;;;;;;;201.63;146.47;;;6.40;99.90;;;;;;5051151;28;20232;-51
2022/10/11 02:45:09;;;;;;;1275.40;587.53;;;6.30;99.90;;;;;;5051685;28;20755;-51
2022/10/11 02:47:40;;;;;;;78.80;63.33;;;6.30;99.90;;;;;;5051516;28;20208;-51
2022/10/11 02:50:10;;;;;;;204.97;110.63;;;6.30;99.90;;;;;;5050776;28;20302;-51
2022/10/11 02:52:38;;;;;;;421.97;235.53;;;6.30;99.90;;;;;;5050793;28;20659;-52
2022/10/11 02:55:08;;;;;;;202.63;150.20;;;6.20;99.90;;;;;;5050928;28;20823;-51
2022/10/11 02:57:36;;;;;;;69.80;51.93;;;6.20;99.90;;;;;;5051327;28;20219;-51
2022/10/11 03:00:05;;;;;;;54.07;36.17;;;6.10;99.90;;;;;;5050950;28;20215;-51
2022/10/11 03:02:33;;;;;;;28.27;24.90;;;6.10;99.90;;;;;;5050839;28;20702;-51
2022/10/11 03:05:03;;;;;;;40.73;37.73;;;6.20;99.90;;;;;;5048963;28;20236;-51
2022/10/11 03:07:31;;;;;;;17.87;13.53;;;6.20;99.90;;;;;;5043639;28;20298;-52
2022/10/11 03:09:59;;;;;;;50.37;45.73;;;6.20;99.90;;;;;;5050715;28;20216;-51
2022/10/11 03:12:27;;;;;;;109.37;68.83;;;6.20;99.90;;;;;;5050898;28;20231;-51
2022/10/11 03:14:55;;;;;;;130.43;110.50;;;6.10;99.90;;;;;;5050766;28;20227;-51
2022/10/11 03:17:23;;;;;;;14.87;11.87;;;6.10;99.90;;;;;;5050572;28;20303;-51
2022/10/11 03:20:06;;;;;;;500.47;330.27;;;6.10;99.90;;;;;;5047971;28;20685;-52
2022/10/11 03:22:34;;;;;;;170.03;130.20;;;5.90;99.90;;;;;;5047910;28;20314;-51
2022/10/11 03:25:02;;;;;;;155.47;126.63;;;5.90;99.90;;;;;;5050165;28;20227;-51
2022/10/11 03:27:32;;;;;;;1050.70;506.33;;;5.80;99.90;;;;;;5050358;28;20720;-52
2022/10/11 03:30:00;;;;;;;159.03;127.87;;;5.80;99.90;;;;;;5049500;28;20308;-51
2022/10/11 03:32:29;;;;;;;534.90;337.87;;;5.70;99.90;;;;;;5049770;28;20256;-51
2022/10/11 03:34:57;;;;;;;90.80;83.37;;;5.60;99.90;;;;;;5048069;28;20674;-52
2022/10/11 03:37:27;;;;;;;70.03;51.67;;;5.60;99.90;;;;;;5049533;28;20819;-51
2022/10/11 03:39:55;;;;;;;33.60;31.00;;;5.60;99.90;;;;;;5049576;28;20207;-51
2022/10/11 03:42:23;;;;;;;38.20;34.93;;;5.60;99.90;;;;;;5048098;28;20263;-51
2022/10/11 03:44:51;;;;;;;226.23;125.03;;;5.60;99.90;;;;;;5049924;28;20223;-51
2022/10/11 03:47:19;;;;;;;270.43;184.93;;;5.60;99.90;;;;;;5050271;28;20229;-51
2022/10/11 03:49:47;;;;;;;1002.40;550.83;;;5.60;99.90;;;;;;5036254;28;20317;-51
2022/10/11 03:52:15;;;;;;;76.33;69.53;;;5.50;99.90;;;;;;5049853;28;20198;-51
2022/10/11 03:54:44;;;;;;;152.13;101.23;;;5.50;99.90;;;;;;5049827;28;20309;-51
2022/10/11 03:57:12;;;;;;;329.53;215.53;;;5.50;99.90;;;;;;5049327;28;20298;-51
2022/10/11 03:59:40;;;;;;;705.63;305.37;;;5.50;99.90;;;;;;5049623;28;20214;-51
2022/10/11 04:02:09;;;;;;;585.40;280.50;;;5.40;99.90;;;;;;5049361;28;20206;-52
2022/10/11 04:04:37;;;;;;;185.20;132.30;;;5.40;99.90;;;;;;5049091;28;20227;-51
2022/10/11 04:07:05;;;;;;;234.83;127.47;;;5.40;99.90;;;;;;5049966;28;20211;-51
2022/10/11 04:09:33;;;;;;;102.00;80.57;;;5.40;99.90;;;;;;5049812;28;20307;-51
2022/10/11 04:12:02;;;;;;;28.00;25.47;;;5.40;99.90;;;;;;5045934;28;20770;-51
2022/10/11 04:14:30;;;;;;;92.67;71.03;;;5.40;99.90;;;;;;5042554;28;20713;-51
2022/10/11 04:16:58;;;;;;;540.60;306.53;;;5.30;99.90;;;;;;5035883;28;20301;-52
2022/10/11 04:19:27;;;;;;;38.33;34.47;;;5.30;99.90;;;;;;5049503;28;20210;-52
2022/10/11 04:21:55;;;;;;;60.97;54.47;;;5.30;99.90;;;;;;5049152;28;20206;-51
2022/10/11 04:24:23;;;;;;;53.27;47.70;;;5.30;99.90;;;;;;5049697;28;20230;-51
2022/10/11 04:26:52;;;;;;;376.23;208.93;;;5.20;99.90;;;;;;5049320;28;20207;-51
2022/10/11 04:29:21;;;;;;;190.97;107.00;;;5.20;99.90;;;;;;5049142;28;20203;-51
2022/10/11 04:31:49;;;;;;;130.43;103.47;;;5.20;99.90;;;;;;5049383;28;20647;-51
2022/10/11 04:34:17;;;;;;;1430.00;540.13;;;5.20;99.90;;;;;;5047294;28;20301;-52
2022/10/11 04:36:46;;;;;;;32.57;29.43;;;5.20;99.90;;;;;;5048724;28;20646;-51
2022/10/11 04:39:17;;;;;;;139.57;88.47;;;5.20;99.90;;;;;;5046256;28;20238;-52
2022/10/11 04:41:45;;;;;;;84.53;69.33;;;5.10;99.90;;;;;;5046288;28;20718;-52
2022/10/11 04:44:13;;;;;;;537.07;220.40;;;5.10;99.90;;;;;;5047001;28;20257;-51
2022/10/11 04:46:42;;;;;;;214.53;141.10;;;5.10;99.90;;;;;;5048700;28;20289;-52
2022/10/11 04:49:10;;;;;;;270.83;136.07;;;5.10;99.90;;;;;;5048417;28;20296;-51
2022/10/11 04:51:38;;;;;;;654.30;373.10;;;5.10;99.90;;;;;;5048316;28;20363;-51
2022/10/11 04:54:06;;;;;;;162.63;145.83;;;5.00;99.90;;;;;;5047636;28;20221;-51
2022/10/11 04:56:34;;;;;;;41.97;29.47;;;5.00;99.90;;;;;;5035270;28;20297;-51
2022/10/11 04:59:03;;;;;;;82.80;74.40;;;5.00;99.90;;;;;;5049075;28;21026;-52
2022/10/11 05:01:31;;;;;;;63.17;55.83;;;5.00;99.90;;;;;;5048999;28;20247;-51
2022/10/11 05:04:00;;;;;;;755.97;439.73;;;5.00;99.90;;;;;;5048518;28;20718;-51
2022/10/11 05:06:28;;;;;;;54.63;48.73;;;5.00;99.90;;;;;;5048485;28;20207;-51
2022/10/11 05:08:57;;;;;;;26.20;23.60;;;5.00;99.90;;;;;;5048519;28;20210;-51
2022/10/11 05:11:25;;;;;;;53.13;48.90;;;5.00;99.90;;;;;;5048593;28;20295;-51
2022/10/11 05:13:55;;;;;;;276.90;175.67;;;5.00;99.90;;;;;;5048757;28;20305;-51
2022/10/11 05:16:23;;;;;;;184.57;123.13;;;4.90;99.90;;;;;;5048681;28;20292;-52
2022/10/11 05:18:51;;;;;;;91.83;82.13;;;4.90;99.90;;;;;;5047395;28;20216;-51
2022/10/11 05:21:22;;;;;;;178.60;135.90;;;4.80;99.90;;;;;;5048694;28;20207;-51
2022/10/11 05:23:52;;;;;;;76.53;68.50;;;4.80;99.90;;;;;;5045491;28;20238;-51
2022/10/11 05:26:21;;;;;;;714.07;376.77;;;4.80;99.90;;;;;;5048648;28;20372;-51
2022/10/11 05:28:49;;;;;;;570.83;316.07;;;4.80;99.90;;;;;;5047920;28;20255;-51
2022/10/11 05:31:17;;;;;;;168.60;110.27;;;4.80;99.90;;;;;;5048531;28;20947;-51
2022/10/11 05:33:46;;;;;;;87.93;77.50;;;4.80;99.90;;;;;;5046547;28;20917;-51
2022/10/11 05:36:14;;;;;;;44.83;40.73;;;4.80;99.90;;;;;;5038704;28;20586;-51
2022/10/11 05:38:43;;;;;;;74.53;66.73;;;4.80;99.90;;;;;;5047419;28;20328;-52
2022/10/11 05:41:13;;;;;;;149.50;117.30;;;4.80;99.90;;;;;;5047497;28;20904;-51
2022/10/11 05:43:43;;;;;;;426.37;255.07;;;4.80;99.90;;;;;;5047670;28;20234;-51
2022/10/11 05:46:11;;;;;;;29.13;26.77;;;4.70;99.90;;;;;;5047862;28;20237;-51
2022/10/11 05:48:40;;;;;;;96.37;84.10;;;4.70;99.90;;;;;;5047694;28;20219;-51
2022/10/11 05:51:09;;;;;;;58.33;54.27;;;4.70;99.90;;;;;;5048711;28;20292;-51
2022/10/11 05:53:38;;;;;;;70.17;64.87;;;4.70;99.90;;;;;;5049791;28;20313;-51
2022/10/11 05:56:19;;;;;;;58.17;53.73;;;4.70;99.90;;;;;;5051298;28;20303;-52
2022/10/11 05:58:47;;;;;;;41.00;37.43;;;4.70;99.90;;;;;;5044922;28;20936;-51
2022/10/11 06:01:19;;;;;;;23.43;21.33;;;4.70;99.90;;;;;;5049506;28;20217;-51
2022/10/11 06:03:48;;;;;;;28.83;25.73;;;4.70;99.90;;;;;;5050928;28;20260;-50
2022/10/11 06:06:17;;;;;;;84.17;76.00;;;4.80;99.90;;;;;;5051173;28;20245;-56
2022/10/11 06:08:45;;;;;;;113.87;103.30;;;4.80;99.90;;;;;;5051334;28;20686;-51
2022/10/11 06:11:17;;;;;;;152.03;109.57;;;4.80;99.90;;;;;;5051070;28;20210;-51
2022/10/11 06:13:45;;;;;;;98.10;89.87;;;4.80;99.90;;;;;;5051348;28;20315;-51
2022/10/11 06:16:13;;;;;;;573.43;290.77;;;4.80;99.90;;;;;;5051627;28;20201;-51
2022/10/11 06:18:41;;;;;;;95.23;85.60;;;4.80;99.90;;;;;;5050803;28;20296;-51
2022/10/11 06:21:10;;;;;;;329.57;270.57;;;4.90;99.90;;;;;;5051282;28;20306;-51
2022/10/11 06:23:38;;;;;;;84.27;75.23;;;4.90;99.90;;;;;;5050664;28;20225;-51
2022/10/11 06:26:07;;;;;;;459.67;239.40;;;4.90;99.90;;;;;;5050346;28;20207;-54
2022/10/11 06:28:38;;;;;;;359.47;212.07;;;5.00;99.90;;;;;;5051827;28;20216;-52
2022/10/11 06:31:06;;;;;;;396.57;266.30;;;5.10;99.90;;;;;;5050751;28;20217;-52
2022/10/11 06:33:35;;;;;;;214.57;146.17;;;5.20;99.90;;;;;;5050937;28;20720;-51
2022/10/11 06:36:06;;;;;;;633.53;310.10;;;5.30;99.90;;;;;;5051444;28;20216;-51
2022/10/11 06:38:35;;;;;;;870.27;400.53;;;5.40;99.90;;;;;;5050488;28;20210;-51
2022/10/11 06:41:11;;;;;;;226.83;153.13;;;5.40;99.90;;;;;;5051024;28;20292;-51
2022/10/11 06:43:40;;;;;;;77.00;67.93;;;5.40;99.90;;;;;;5048507;28;20252;-51
2022/10/11 06:46:08;;;;;;;937.10;487.47;;;5.40;99.90;;;;;;5051381;28;20284;-52
2022/10/11 06:48:40;;;;;;;936.97;476.97;;;5.50;99.90;;;;;;5051110;28;20219;-51
2022/10/11 06:51:08;;;;;;;62.00;41.13;;;5.70;99.90;;;;;;5051165;28;20253;-52
2022/10/11 06:53:36;;;;;;;68.07;62.17;;;5.80;99.90;;;;;;5050517;28;20724;-51
2022/10/11 06:56:06;;;;;;;209.67;133.67;;;5.90;99.90;;;;;;5050533;28;20297;-51
2022/10/11 06:58:35;;;;;;;137.07;74.03;;;6.00;99.90;;;;;;5051026;28;20206;-51
2022/10/11 07:01:07;;;;;;;563.40;245.50;;;6.10;99.90;;;;;;5048587;28;20233;-51
2022/10/11 07:03:35;;;;;;;97.90;73.40;;;6.10;99.90;;;;;;5044061;28;20319;-51
2022/10/11 07:06:06;;;;;;;704.97;315.43;;;6.20;99.90;;;;;;5045198;28;20309;-52
2022/10/11 07:08:35;;;;;;;309.50;173.27;;;6.30;99.90;;;;;;5050837;28;20227;-51
2022/10/11 07:11:04;;;;;;;416.07;282.87;;;6.40;99.90;;;;;;5051332;28;20298;-51
2022/10/11 07:13:32;;;;;;;766.90;582.07;;;6.70;99.90;;;;;;5051091;28;20356;-52
2022/10/11 07:16:01;;;;;;;442.27;216.57;;;6.90;99.90;;;;;;5051857;28;20313;-52
2022/10/11 07:18:31;;;;;;;792.47;449.77;;;7.20;99.90;;;;;;5051577;28;20252;-51
2022/10/11 07:21:03;;;;;;;614.10;364.20;;;7.50;99.90;;;;;;5049860;28;20667;-50
2022/10/11 07:23:31;;;;;;;914.93;552.87;;;7.70;99.90;;;;;;5049795;28;20300;-52
2022/10/11 07:25:59;;;;;;;645.20;488.83;;;7.90;99.90;;;;;;5050334;28;20904;-52
2022/10/11 07:28:29;;;;;;;1049.33;673.37;;;8.10;99.90;;;;;;5050727;28;20296;-52
2022/10/11 07:30:57;;;;;;;1357.30;727.93;;;8.30;99.90;;;;;;5050354;28;20297;-52
2022/10/11 07:33:25;;;;;;;1338.90;723.80;;;8.40;99.90;;;;;;5048553;28;20685;-51
2022/10/11 07:35:57;;;;;;;1085.07;711.97;;;8.60;99.90;;;;;;5050119;28;20197;-51
2022/10/11 07:38:25;;;;;;;922.13;515.07;;;8.80;99.90;;;;;;5050303;28;20317;-52
2022/10/11 07:40:54;;;;;;;899.70;602.47;;;8.70;99.90;;;;;;5049149;28;20758;-52
2022/10/11 07:43:22;;;;;;;807.53;576.23;;;8.60;99.90;;;;;;5049647;28;20215;-51
2022/10/11 07:45:54;;;;;;;755.83;500.73;;;8.50;99.90;;;;;;5050037;28;20225;-51
2022/10/11 07:48:22;;;;;;;762.27;479.33;;;8.60;99.90;;;;;;5049902;28;20293;-52
2022/10/11 07:50:50;;;;;;;628.77;436.23;;;8.70;99.90;;;;;;5049703;28;20676;-51
2022/10/11 07:53:20;;;;;;;680.40;375.23;;;8.80;99.90;;;;;;5049481;28;20301;-52
2022/10/11 07:55:48;;;;;;;598.40;426.67;;;8.70;99.90;;;;;;5049668;28;20626;-52
2022/10/11 07:58:16;;;;;;;662.07;464.53;;;8.80;99.90;;;;;;5049823;28;20206;-51
2022/10/11 08:00:44;;;;;;;323.37;167.00;;;8.90;99.90;;;;;;5049888;28;20734;-50
2022/10/11 08:03:12;;;;;;;724.17;470.80;;;9.10;99.90;;;;;;5048916;28;20202;-52
2022/10/11 08:05:40;;;;;;;699.80;389.00;;;9.30;99.90;;;;;;5048288;28;20308;-52
2022/10/11 08:08:09;;;;;;;664.00;345.97;;;9.30;99.90;;;;;;5047258;28;20227;-52
2022/10/11 08:10:38;;;;;;;615.67;434.70;;;9.20;99.90;;;;;;5049506;28;20288;-51
2022/10/11 08:13:07;;;;;;;564.33;328.30;;;9.20;99.90;;;;;;5049138;28;20301;-51
2022/10/11 08:15:35;;;;;;;599.60;346.70;;;9.30;99.90;;;;;;5043336;28;20310;-52
2022/10/11 08:18:04;;;;;;;705.50;412.50;;;9.30;99.90;;;;;;5049167;28;20304;-51
2022/10/11 08:20:32;;;;;;;312.33;173.47;;;9.60;99.90;;;;;;5037289;28;20205;-52
2022/10/11 08:23:00;;;;;;;532.97;277.53;;;9.80;99.90;;;;;;5048935;28;20244;-52
2022/10/11 08:25:28;;;;;;;484.60;259.70;;;10.10;99.90;;;;;;5048922;28;20585;-52
2022/10/11 08:27:58;;;;;;;904.07;541.00;;;10.30;99.90;;;;;;5044180;28;20206;-52
2022/10/11 08:30:26;;;;;;;742.77;551.73;;;10.50;99.90;;;;;;5048273;28;20322;-52
2022/10/11 08:32:54;;;;;;;606.00;403.30;;;10.50;99.90;;;;;;5046218;28;20776;-52
2022/10/11 08:35:22;;;;;;;938.50;627.73;;;10.70;99.90;;;;;;5048844;28;20811;-52
2022/10/11 08:37:50;;;;;;;761.97;500.27;;;10.70;99.90;;;;;;5038991;28;20328;-52
2022/10/11 08:40:20;;;;;;;771.20;464.83;;;10.70;99.90;;;;;;5040655;28;20827;-51
2022/10/11 08:42:55;;;;;;;750.00;481.87;;;10.70;99.90;;;;;;5043810;28;20592;-51
2022/10/11 08:45:31;;;;;;;916.27;515.60;;;10.80;99.90;;;;;;5048950;28;20315;-52
2022/10/11 08:48:08;;;;;;;616.83;360.57;;;10.90;99.90;;;;;;5049532;28;20223;-52
2022/10/11 08:50:38;;;;;;;754.63;481.97;;;11.10;99.90;;;;;;5049550;28;20201;-52
2022/10/11 08:53:14;;;;;;;783.67;456.33;;;11.30;99.90;;;;;;5048737;28;20734;-51
2022/10/11 08:55:48;;;;;;;694.57;283.40;;;11.30;99.90;;;;;;5048375;28;20198;-51
2022/10/11 08:58:19;;;;;;;680.93;403.33;;;11.30;99.90;;;;;;5044706;28;20292;-51
2022/10/11 09:00:52;;;;;;;739.77;421.60;;;11.30;99.90;;;;;;5049536;28;20296;-52
2022/10/11 09:03:28;;;;;;;875.03;603.57;;;11.30;99.90;;;;;;5048098;28;20252;-51
2022/10/11 09:06:05;;;;;;;770.80;478.00;;;11.30;99.90;;;;;;5049250;28;20248;-52
2022/10/11 09:08:44;;;;;;;811.93;512.70;;;11.40;99.90;;;;;;5031802;28;20694;-52
2022/10/11 09:11:21;;;;;;;800.33;450.50;;;11.50;99.90;;;;;;5043345;28;20231;-52
2022/10/11 09:14:04;;;;;;;757.60;344.13;;;11.60;99.90;;;;;;5048279;28;20729;-52
2022/10/11 09:16:45;;;;;;;1142.27;592.77;;;11.70;99.90;;;;;;5048418;28;20313;-52
2022/10/11 09:19:38;;;;;;;1071.40;609.57;;;11.80;99.90;;;;;;5039196;28;20666;-52
2022/10/11 09:22:13;;;;;;;644.33;286.13;;;11.90;99.90;;;;;;5034483;28;20300;-52
2022/10/11 09:24:59;;;;;;;712.10;376.97;;;12.00;99.90;;;;;;5036072;28;20360;-52
2022/10/11 09:27:31;;;;;;;1280.00;721.57;;;12.20;99.90;;;;;;5046902;28;20289;-51
2022/10/11 09:30:20;;;;;;;763.33;443.30;;;12.00;99.90;;;;;;5052178;28;20228;-52
2022/10/11 09:32:58;;;;;;;1118.57;585.70;;;12.00;99.90;;;;;;5033157;28;20305;-52
2022/10/11 09:35:32;;;;;;;927.90;583.50;;;12.00;99.90;;;;;;5040286;28;20230;-51
2022/10/11 09:38:05;;;;;;;1672.57;819.73;;;12.00;99.90;;;;;;5043651;28;20265;-52
2022/10/11 09:40:43;;;;;;;1255.23;668.60;;;11.90;99.90;;;;;;5046215;28;20211;-52
2022/10/11 09:43:12;;;;;;;1588.10;742.93;;;11.80;99.90;;;;;;5051645;28;20288;-52
2022/10/11 09:45:43;;;;;;;1151.33;647.30;;;11.90;99.90;;;;;;5051867;28;20237;-52
2022/10/11 09:48:22;;;;;;;1185.87;604.73;;;12.00;99.90;;;;;;5052380;28;20241;-52
2022/10/11 09:51:02;;;;;;;1422.27;767.27;;;12.20;99.90;;;;;;5050742;28;20296;-51
2022/10/11 09:53:51;;;;;;;1090.30;574.43;;;12.30;99.90;;;;;;5051250;28;20762;-51
2022/10/11 09:56:19;;;;;;;1902.17;844.43;;;12.30;99.90;;;;;;5051865;28;20248;-52
2022/10/11 09:58:47;;;;;;;705.57;469.00;;;12.40;99.90;;;;;;5046889;28;20202;-52
2022/10/11 10:01:24;;;;;;;1849.17;874.90;;;12.40;99.90;;;;;;5048937;28;20213;-51
2022/10/11 10:04:07;;;;;;;1020.07;576.47;;;12.50;99.90;;;;;;5050998;28;20622;-51
2022/10/11 10:06:36;;;;;;;942.00;660.37;;;12.50;99.90;;;;;;5051225;28;20231;-51
2022/10/11 10:09:21;;;;;;;1012.83;628.50;;;12.50;99.90;;;;;;5051755;28;20671;-51
2022/10/11 10:11:49;;;;;;;1131.43;738.87;;;12.50;99.90;;;;;;5050388;28;20635;-51
2022/10/11 10:14:22;;;;;;;1492.97;788.23;;;12.40;99.90;;;;;;5051103;28;20312;-52
2022/10/11 10:17:00;;;;;;;1727.50;862.40;;;12.30;99.90;;;;;;5039785;28;20853;-52
2022/10/11 10:19:36;;;;;;;989.63;627.20;;;12.30;99.90;;;;;;5051483;28;20215;-52
2022/10/11 10:22:18;;;;;;;1102.43;728.23;;;12.20;99.90;;;;;;5038284;28;20205;-51
2022/10/11 10:24:48;;;;;;;851.27;624.77;;;12.20;99.90;;;;;;5048983;28;20316;-52
2022/10/11 10:27:20;;;;;;;1286.07;712.87;;;12.30;99.90;;;;;;5051019;28;20761;-52
2022/10/11 10:30:13;;;;;;;1405.60;778.80;;;12.30;99.90;;;;;;5041620;28;20263;-51
2022/10/11 10:32:55;;;;;;;1065.57;686.83;;;12.30;99.90;;;;;;5047601;28;20210;-52
2022/10/11 10:35:38;;;;;;;767.10;600.93;;;12.40;99.90;;;;;;5050837;28;20650;-52
2022/10/11 10:38:16;;;;;;;1073.00;713.13;;;12.40;99.90;;;;;;5049263;28;20797;-52
2022/10/11 10:40:47;;;;;;;1238.17;736.03;;;12.30;99.90;;;;;;5045415;28;20634;-51
2022/10/11 10:43:18;;;;;;;1213.13;806.53;;;12.40;99.90;;;;;;5050435;28;20301;-51
2022/10/11 10:46:18;;;;;;;762.17;639.77;;;12.40;99.90;;;;;;5042782;28;20292;-52
2022/10/11 10:48:54;;;;;;;925.57;677.27;;;12.60;99.90;;;;;;5050800;28;20579;-51
2022/10/11 10:51:56;;;;;;;850.93;649.37;;;12.60;99.90;;;;;;5037929;28;20201;-52
2022/10/11 10:54:37;;;;;;;980.43;672.23;;;12.50;99.90;;;;;;5050741;28;20325;-51
2022/10/11 10:57:14;;;;;;;1521.53;861.30;;;12.50;99.90;;;;;;5050775;28;20197;-51
2022/10/11 11:00:05;;;;;;;1197.30;694.50;;;12.60;99.90;;;;;;5050222;28;20684;-52
2022/10/11 11:02:40;;;;;;;955.97;718.43;;;12.60;99.90;;;;;;5049257;28;20285;-52
2022/10/11 11:05:20;;;;;;;1635.20;941.23;;;12.60;99.90;;;;;;5051126;28;20653;-52
2022/10/11 11:07:59;;;;;;;1078.27;711.20;;;12.70;99.90;;;;;;5050694;28;20218;-51
2022/10/11 11:10:36;;;;;;;864.43;683.83;;;12.70;99.90;;;;;;5049838;28;20202;-51
2022/10/11 11:13:28;;;;;;;1736.53;924.80;;;12.80;99.90;;;;;;5048796;28;20750;-51
2022/10/11 11:16:06;;;;;;;1511.37;855.63;;;13.00;99.90;;;;;;5049612;28;20296;-51
2022/10/11 11:18:43;;;;;;;759.60;638.00;;;13.00;99.90;;;;;;5050523;28;20209;-52
2022/10/11 11:21:25;;;;;;;1206.60;800.43;;;13.00;99.90;;;;;;5046691;28;20293;-52
2022/10/11 11:24:03;;;;;;;1314.60;837.67;;;13.00;99.90;;;;;;5047576;28;20227;-52
2022/10/11 11:26:39;;;;;;;1107.23;767.97;;;13.00;99.90;;;;;;5049926;28;20709;-52
2022/10/11 11:29:22;;;;;;;1116.13;757.60;;;13.10;99.90;;;;;;5049442;28;20305;-52
2022/10/11 11:32:06;;;;;;;1014.70;793.37;;;13.10;99.90;;;;;;5047562;28;20206;-52
2022/10/11 11:34:39;;;;;;;901.70;799.67;;;13.00;99.90;;;;;;5037811;28;20228;-52
2022/10/11 11:37:19;;;;;;;1395.47;918.53;;;13.10;99.90;;;;;;5050220;28;20320;-52
2022/10/11 11:39:51;;;;;;;922.43;721.43;;;13.20;99.90;;;;;;5037810;28;20231;-51
2022/10/11 11:42:26;;;;;;;1085.03;862.03;;;13.10;99.90;;;;;;5049720;28;20231;-52
2022/10/11 11:44:54;;;;;;;1095.47;710.53;;;13.10;99.90;;;;;;5038109;28;20229;-52
2022/10/11 11:47:28;;;;;;;828.93;709.97;;;13.10;99.90;;;;;;5050321;28;20232;-52
2022/10/11 11:50:01;;;;;;;881.03;792.97;;;13.10;99.90;;;;;;5049139;28;20262;-52
2022/10/11 11:52:34;;;;;;;741.20;660.33;;;13.10;99.90;;;;;;5049164;28;20297;-52
2022/10/11 11:55:11;;;;;;;1116.57;844.17;;;13.10;99.90;;;;;;5049863;28;20672;-52
2022/10/11 11:57:55;;;;;;;1106.90;845.27;;;13.10;99.90;;;;;;5045259;28;20315;-50
2022/10/11 12:00:25;;;;;;;853.67;702.13;;;13.10;99.90;;;;;;5049659;28;20297;-52
2022/10/11 12:02:57;;;;;;;855.63;568.43;;;13.10;99.90;;;;;;5049469;28;20292;-51
2022/10/11 12:05:28;;;;;;;914.00;811.97;;;13.20;99.90;;;;;;5049028;28;21137;-52
2022/10/11 12:08:00;;;;;;;1366.57;876.47;;;13.30;99.90;;;;;;5044832;28;20762;-52
2022/10/11 12:10:36;;;;;;;926.60;777.00;;;13.40;99.90;;;;;;5049772;28;20209;-51
2022/10/11 12:13:16;;;;;;;888.17;799.77;;;13.40;99.90;;;;;;5048500;28;20299;-52
2022/10/11 12:16:01;;;;;;;820.67;732.73;;;13.30;99.90;;;;;;5049321;28;20237;-52
2022/10/11 12:18:30;;;;;;;1093.67;756.90;;;13.40;99.90;;;;;;5043601;28;20208;-52
2022/10/11 12:21:04;;;;;;;1050.63;794.73;;;13.40;99.90;;;;;;5049021;28;20296;-52
2022/10/11 12:23:45;;;;;;;965.70;762.00;;;13.30;99.90;;;;;;5048664;28;20220;-52
2022/10/11 12:29:44;;;;;;;945.17;698.30;;;13.30;99.90;;;;;;5147594;27;20553;-51
2022/10/11 12:32:51;;;;;;;761.27;590.83;;;13.30;99.90;;;;;;5128863;27;20293;-51
2022/10/11 12:35:50;;;;;;;1058.47;788.30;;;13.30;99.90;;;;;;5147171;27;20741;-51
2022/10/11 12:38:21;;;;;;;873.80;771.87;;;13.30;99.90;;;;;;5118795;27;20282;-51
2022/10/11 12:40:53;;;;;;;913.80;628.87;;;13.30;99.90;;;;;;5140896;27;20305;-51
2022/10/11 12:43:36;;;;;;;1032.50;764.47;;;13.40;99.90;;;;;;5147337;27;20212;-51
2022/10/11 12:46:33;;;;;;;1039.33;850.33;;;13.40;99.90;;;;;;5143120;27;20685;-51
2022/10/11 12:49:18;;;;;;;749.70;609.27;;;13.40;99.90;;;;;;5147619;27;20312;-51